createdAt,value
2022-08-02T00:02:41.937Z,19.73
2022-08-02T00:07:31.603Z,19.66
2022-08-02T00:12:21.376Z,19.61
2022-08-02T00:17:13.728Z,19.52
2022-08-02T00:22:03.390Z,19.46
2022-08-02T00:26:53.142Z,19.46
2022-08-02T00:31:42.874Z,19.41
2022-08-02T00:36:35.466Z,19.43
2022-08-02T00:41:26.384Z,19.32
2022-08-02T00:46:17.072Z,19.24
2022-08-02T00:51:07.054Z,19.26
2022-08-02T00:55:59.357Z,19.19
2022-08-02T01:00:49.030Z,19.14
2022-08-02T01:06:09.157Z,19.08
2022-08-02T01:10:48.780Z,19.01
2022-08-02T01:15:48.888Z,19.00
2022-08-02T01:21:03.547Z,18.97
2022-08-02T01:26:20.067Z,18.93
2022-08-02T01:31:21.562Z,18.77
2022-08-02T01:36:14.762Z,18.82
2022-08-02T01:41:06.834Z,18.73
2022-08-02T01:45:59.358Z,18.67
2022-08-02T01:50:53.866Z,18.58
2022-08-02T01:55:56.928Z,18.51
2022-08-02T02:00:51.080Z,18.51
2022-08-02T02:05:42.353Z,18.49
2022-08-02T02:10:38.503Z,18.44
2022-08-02T02:15:29.391Z,18.41
2022-08-02T02:20:21.316Z,18.28
2022-08-02T02:25:11.624Z,18.03
2022-08-02T02:30:04.270Z,17.89
2022-08-02T02:34:54.058Z,17.76
2022-08-02T02:39:44.964Z,17.67
2022-08-02T02:44:35.965Z,17.64
2022-08-02T02:49:28.910Z,17.62
2022-08-02T02:54:30.361Z,17.58
2022-08-02T02:59:23.839Z,17.56
2022-08-02T03:04:14.506Z,17.54
2022-08-02T03:09:07.255Z,17.54
2022-08-02T03:13:57.578Z,17.52
2022-08-02T03:18:47.308Z,17.47
2022-08-02T03:23:37.703Z,17.42
2022-08-02T03:28:30.288Z,17.39
2022-08-02T03:33:21.000Z,17.39
2022-08-02T03:38:11.816Z,17.35
2022-08-02T03:43:02.492Z,17.31
2022-08-02T03:47:58.827Z,17.26
2022-08-02T03:52:50.360Z,17.24
2022-08-02T03:57:40.743Z,17.21
2022-08-02T04:02:30.432Z,17.19
2022-08-02T04:08:34.365Z,17.14
2022-08-02T04:12:32.110Z,17.07
2022-08-02T04:17:23.454Z,17.05
2022-08-02T04:22:17.145Z,17.00
2022-08-02T04:27:48.970Z,16.96
2022-08-02T04:32:20.931Z,16.90
2022-08-02T04:37:10.357Z,16.87
2022-08-02T04:41:59.799Z,16.81
2022-08-02T04:46:53.369Z,16.79
2022-08-02T04:51:46.810Z,16.78
2022-08-02T04:56:36.414Z,16.75
2022-08-02T05:01:25.971Z,16.74
2022-08-02T05:06:19.915Z,16.70
2022-08-02T05:11:10.207Z,16.69
2022-08-02T05:16:03.895Z,16.69
2022-08-02T05:21:00.060Z,16.69
2022-08-02T05:25:54.318Z,16.70
2022-08-02T05:30:44.093Z,16.69
2022-08-02T05:35:33.972Z,16.67
2022-08-02T05:40:26.020Z,16.67
2022-08-02T05:45:20.678Z,16.66
2022-08-02T05:50:10.833Z,16.69
2022-08-02T05:55:04.209Z,16.71
2022-08-02T06:00:02.804Z,16.77
2022-08-02T06:05:06.973Z,16.82
2022-08-02T06:09:58.164Z,16.88
2022-08-02T06:14:54.045Z,16.96
2022-08-02T06:19:51.495Z,17.05
2022-08-02T06:24:46.536Z,17.15
2022-08-02T06:29:38.983Z,17.24
2022-08-02T06:34:28.539Z,17.37
2022-08-02T06:39:23.977Z,17.48
2022-08-02T06:49:25.831Z,17.69
2022-08-02T06:54:36.251Z,17.80
2022-08-02T06:59:28.240Z,17.90
2022-08-02T07:04:20.284Z,18.01
2022-08-02T07:09:25.079Z,18.13
2022-08-02T07:14:14.698Z,18.33
2022-08-02T07:19:06.644Z,18.51
2022-08-02T07:23:56.081Z,18.70
2022-08-02T07:28:46.123Z,18.86
2022-08-02T07:33:37.805Z,19.04
2022-08-02T07:38:31.848Z,19.17
2022-08-02T07:43:23.933Z,19.36
2022-08-02T07:48:13.531Z,19.46
2022-08-02T07:53:03.161Z,19.61
2022-08-02T07:57:55.541Z,19.76
2022-08-02T08:02:44.921Z,19.97
2022-08-02T08:07:34.409Z,20.14
2022-08-02T08:12:24.314Z,20.38
2022-08-02T08:17:16.296Z,20.65
2022-08-02T08:22:06.146Z,20.86
2022-08-02T08:26:55.737Z,21.00
2022-08-02T08:31:45.306Z,21.12
2022-08-02T08:36:40.688Z,21.26
2022-08-02T08:41:30.242Z,21.37
2022-08-02T08:46:28.749Z,21.57
2022-08-02T08:51:19.116Z,21.84
2022-08-02T08:56:15.731Z,22.13
2022-08-02T09:01:05.891Z,22.46
2022-08-02T09:05:55.392Z,22.73
2022-08-02T09:10:45.869Z,22.96
2022-08-02T09:15:37.952Z,23.12
2022-08-02T09:20:30.741Z,23.35
2022-08-02T09:25:20.355Z,23.59
2022-08-02T09:30:16.890Z,23.83
2022-08-02T09:35:11.023Z,24.09
2022-08-02T09:40:03.629Z,24.35
2022-08-02T09:44:57.192Z,24.63
2022-08-02T09:49:52.271Z,24.75
2022-08-02T09:54:44.764Z,24.84
2022-08-02T09:59:34.218Z,24.90
2022-08-02T10:04:24.963Z,24.86
2022-08-02T10:09:15.911Z,24.93
2022-08-02T10:14:09.381Z,25.05
2022-08-02T10:19:02.143Z,25.21
2022-08-02T10:23:52.754Z,25.39
2022-08-02T10:28:42.229Z,25.53
2022-08-02T10:33:35.708Z,25.68
2022-08-02T10:38:25.249Z,25.75
2022-08-02T10:43:15.144Z,26.01
2022-08-02T10:48:07.111Z,26.39
2022-08-02T10:53:23.916Z,26.95
2022-08-02T10:58:21.768Z,27.09
2022-08-02T11:03:44.696Z,27.03
2022-08-02T11:08:37.302Z,27.01
2022-08-02T11:13:27.196Z,27.12
2022-08-02T11:18:17.049Z,27.21
2022-08-02T11:23:45.407Z,27.25
2022-08-02T11:28:36.966Z,27.37
2022-08-02T11:33:33.727Z,27.37
2022-08-02T11:38:24.566Z,27.25
2022-08-02T11:43:25.120Z,27.13
2022-08-02T11:48:15.075Z,27.08
2022-08-02T11:53:15.817Z,26.92
2022-08-02T11:58:10.092Z,26.85
2022-08-02T12:03:02.912Z,27.05
2022-08-02T12:07:54.609Z,27.17
2022-08-02T12:12:52.189Z,27.36
2022-08-02T12:17:56.531Z,27.47
2022-08-02T12:22:48.887Z,27.43
2022-08-02T12:27:41.398Z,27.54
2022-08-02T12:32:31.390Z,27.64
2022-08-02T12:37:28.723Z,27.72
2022-08-02T12:42:21.179Z,27.67
2022-08-02T12:47:12.397Z,27.70
2022-08-02T12:52:11.553Z,27.87
2022-08-02T12:57:02.572Z,27.90
2022-08-02T13:01:54.995Z,27.95
2022-08-02T13:06:45.507Z,28.03
2022-08-02T13:11:35.540Z,28.09
2022-08-02T13:16:30.916Z,28.04
2022-08-02T13:21:41.428Z,28.11
2022-08-02T13:26:33.423Z,28.14
2022-08-02T13:31:36.195Z,28.23
2022-08-02T13:36:30.091Z,28.25
2022-08-02T13:41:19.867Z,28.39
2022-08-02T13:46:09.617Z,28.49
2022-08-02T13:50:59.379Z,28.54
2022-08-02T13:55:56.041Z,28.62
2022-08-02T14:00:46.105Z,28.74
2022-08-02T14:05:46.928Z,28.90
2022-08-02T14:10:38.488Z,29.12
2022-08-02T14:15:33.000Z,29.19
2022-08-02T14:20:30.004Z,29.23
2022-08-02T14:25:20.643Z,29.20
2022-08-02T14:30:11.862Z,29.24
2022-08-02T14:35:04.331Z,29.22
2022-08-02T14:40:00.172Z,29.24
2022-08-02T14:44:50.843Z,29.20
2022-08-02T14:49:42.798Z,29.24
2022-08-02T14:54:36.701Z,29.15
2022-08-02T14:59:26.609Z,29.20
2022-08-02T15:04:19.573Z,29.24
2022-08-02T15:09:09.246Z,29.22
2022-08-02T15:14:01.549Z,29.21
2022-08-02T15:18:51.576Z,29.10
2022-08-02T15:23:42.607Z,28.98
2022-08-02T15:28:32.423Z,28.81
2022-08-02T15:33:28.510Z,28.85
2022-08-02T15:38:18.758Z,28.81
2022-08-02T15:43:09.931Z,28.81
2022-08-02T15:48:01.918Z,28.77
2022-08-02T15:52:56.317Z,28.84
2022-08-02T15:57:46.352Z,28.96
2022-08-02T16:02:36.111Z,28.97
2022-08-02T16:07:25.896Z,29.00
2022-08-02T16:12:19.681Z,29.03
2022-08-02T16:17:49.105Z,28.98
2022-08-02T16:22:33.756Z,29.03
2022-08-02T16:27:26.061Z,29.01
2022-08-02T16:32:17.210Z,29.04
2022-08-02T16:37:07.288Z,28.99
2022-08-02T16:41:56.983Z,28.94
2022-08-02T16:46:50.817Z,28.85
2022-08-02T16:51:40.570Z,28.83
2022-08-02T16:56:30.444Z,28.84
2022-08-02T17:01:27.305Z,28.68
2022-08-02T17:06:22.592Z,28.46
2022-08-02T17:11:17.438Z,28.44
2022-08-02T17:16:20.830Z,28.29
2022-08-02T17:21:21.249Z,28.20
2022-08-02T17:26:16.351Z,28.02
2022-08-02T17:31:05.989Z,27.85
2022-08-02T17:35:55.661Z,27.76
2022-08-02T17:40:51.840Z,27.57
2022-08-02T17:46:00.420Z,27.36
2022-08-02T17:50:51.841Z,27.15
2022-08-02T17:55:42.875Z,27.03
2022-08-02T18:00:37.123Z,26.89
2022-08-02T18:05:39.951Z,26.69
2022-08-02T18:10:39.441Z,26.54
2022-08-02T18:15:29.140Z,26.43
2022-08-02T18:20:22.207Z,26.28
2022-08-02T18:25:36.230Z,26.14
2022-08-02T18:30:28.158Z,26.08
2022-08-02T18:35:18.474Z,26.03
2022-08-02T18:40:09.849Z,25.88
2022-08-02T18:45:05.260Z,25.78
2022-08-02T18:49:58.281Z,25.67
2022-08-02T18:54:50.831Z,25.47
2022-08-02T18:59:40.543Z,25.26
2022-08-02T19:04:34.566Z,25.09
2022-08-02T19:09:24.175Z,24.90
2022-08-02T19:14:24.457Z,24.68
2022-08-02T19:19:22.316Z,24.54
2022-08-02T19:24:14.905Z,24.41
2022-08-02T19:29:08.716Z,24.37
2022-08-02T19:34:07.512Z,24.33
2022-08-02T19:38:58.346Z,24.29
2022-08-02T19:49:01.401Z,24.08
2022-08-02T19:54:06.986Z,24.08
2022-08-02T19:59:13.190Z,24.02
2022-08-02T20:04:07.443Z,23.89
2022-08-02T20:09:04.218Z,23.80
2022-08-02T20:14:00.659Z,23.69
2022-08-02T20:18:53.742Z,23.58
2022-08-02T20:23:44.178Z,23.42
2022-08-02T20:28:41.896Z,23.37
2022-08-02T20:33:31.702Z,23.33
2022-08-02T20:38:27.915Z,23.31
2022-08-02T20:43:19.590Z,23.19
2022-08-02T20:48:09.469Z,23.15
2022-08-02T20:53:01.937Z,23.14
2022-08-02T20:58:00.413Z,23.10
2022-08-02T21:02:53.368Z,22.99
2022-08-02T21:07:43.169Z,22.95
2022-08-02T21:12:37.586Z,22.96
2022-08-02T21:17:44.029Z,22.93
2022-08-02T21:22:43.616Z,22.90
2022-08-02T21:27:52.290Z,22.94
2022-08-02T21:32:50.525Z,22.87
2022-08-02T21:37:44.948Z,22.92
2022-08-02T21:42:35.180Z,22.97
2022-08-02T21:47:27.899Z,22.95
2022-08-02T21:52:20.310Z,22.94
2022-08-02T21:57:16.690Z,22.85
2022-08-02T22:02:08.368Z,22.86
2022-08-02T22:06:58.769Z,22.79
2022-08-02T22:11:51.205Z,22.71
2022-08-02T22:16:40.881Z,22.65
2022-08-02T22:21:33.661Z,22.63
2022-08-02T22:26:40.260Z,22.61
2022-08-02T22:36:44.017Z,22.58
2022-08-02T22:42:05.320Z,22.57
2022-08-02T22:46:49.982Z,22.58
2022-08-02T22:51:39.953Z,22.58
2022-08-02T22:56:29.720Z,22.63
2022-08-02T22:59:05.140Z,22.57
2022-08-02T22:59:05.411Z,24.19
2022-08-02T23:01:19.463Z,22.53
2022-08-02T23:06:12.038Z,22.45
2022-08-02T23:11:01.781Z,22.44
2022-08-02T23:16:03.938Z,22.43
2022-08-02T23:20:53.818Z,22.38
2022-08-02T23:25:46.322Z,22.35
2022-08-02T23:30:36.013Z,22.30
2022-08-02T23:35:25.966Z,22.25
2022-08-02T23:40:15.871Z,22.24
2022-08-02T23:45:28.086Z,22.20
2022-08-02T23:50:27.718Z,22.20
2022-08-02T23:55:17.611Z,22.12
